Wellesbourne Mountford, United Kingdom
Current Conditions -  °F | °C
As of 2:20 PM on Friday 19 Dec 2014 (Local Time) from EGBE Reporting Station
Scattered Clouds Scattered Clouds  
Wind Chill: 42°   Ceiling: Unl
Heat Index: 48°   Visibility: 6mi
Dew Point: 36°   Wind: 18mph
Humidity: 62%   Direction: 270°W
Pressure: 29.97"   Gusts: NA
Location:  52.18°N, 1.58°W
Report Text: EGBE 191420Z 27016KT 9999 SCT035 09/02 Q1015
Loading
Personal Weather Stations






























Interactive Weather Map New forecast layout! Learn more

10-Day Weather Forecast

Advertisements
Track Severe Weather on mobile